sensor_id;sensor_type;location;lat;lon;timestamp;P1;durP1;ratioP1;P2;durP2;ratioP2
34739;SDS011;20967;48.442;9.994;2022-08-19T00:00:53;34.78;;;22.65;;
34739;SDS011;20967;48.442;9.994;2022-08-19T00:03:21;38.48;;;22.82;;
34739;SDS011;20967;48.442;9.994;2022-08-19T00:05:48;39.55;;;24.15;;
34739;SDS011;20967;48.442;9.994;2022-08-19T00:08:16;39.88;;;23.62;;
34739;SDS011;20967;48.442;9.994;2022-08-19T00:10:43;34.18;;;22.50;;
34739;SDS011;20967;48.442;9.994;2022-08-19T00:13:12;39.78;;;24.67;;
34739;SDS011;20967;48.442;9.994;2022-08-19T00:15:40;38.48;;;23.55;;
34739;SDS011;20967;48.442;9.994;2022-08-19T00:18:08;41.60;;;24.77;;
34739;SDS011;20967;48.442;9.994;2022-08-19T00:20:35;44.88;;;27.75;;
34739;SDS011;20967;48.442;9.994;2022-08-19T00:23:05;52.30;;;27.90;;
34739;SDS011;20967;48.442;9.994;2022-08-19T00:25:32;45.92;;;28.02;;
34739;SDS011;20967;48.442;9.994;2022-08-19T00:28:00;56.42;;;29.37;;
34739;SDS011;20967;48.442;9.994;2022-08-19T00:30:27;50.58;;;27.42;;
34739;SDS011;20967;48.442;9.994;2022-08-19T00:32:55;50.30;;;30.72;;
34739;SDS011;20967;48.442;9.994;2022-08-19T00:35:23;46.15;;;27.27;;
34739;SDS011;20967;48.442;9.994;2022-08-19T00:37:51;49.63;;;27.62;;
34739;SDS011;20967;48.442;9.994;2022-08-19T00:40:19;49.95;;;30.00;;
34739;SDS011;20967;48.442;9.994;2022-08-19T00:42:47;45.38;;;27.07;;
34739;SDS011;20967;48.442;9.994;2022-08-19T00:45:16;55.08;;;30.57;;
34739;SDS011;20967;48.442;9.994;2022-08-19T00:47:44;49.77;;;29.80;;
34739;SDS011;20967;48.442;9.994;2022-08-19T00:50:17;54.23;;;30.08;;
34739;SDS011;20967;48.442;9.994;2022-08-19T00:52:43;56.90;;;32.23;;
34739;SDS011;20967;48.442;9.994;2022-08-19T00:55:17;54.70;;;31.85;;
34739;SDS011;20967;48.442;9.994;2022-08-19T00:57:42;49.08;;;30.62;;
34739;SDS011;20967;48.442;9.994;2022-08-19T01:00:13;55.40;;;31.68;;
34739;SDS011;20967;48.442;9.994;2022-08-19T01:02:40;55.28;;;33.05;;
34739;SDS011;20967;48.442;9.994;2022-08-19T01:05:10;54.73;;;31.27;;
34739;SDS011;20967;48.442;9.994;2022-08-19T01:07:38;54.27;;;31.80;;
34739;SDS011;20967;48.442;9.994;2022-08-19T01:10:08;53.55;;;31.45;;
34739;SDS011;20967;48.442;9.994;2022-08-19T01:12:37;50.88;;;29.63;;
34739;SDS011;20967;48.442;9.994;2022-08-19T01:15:05;51.02;;;29.65;;
34739;SDS011;20967;48.442;9.994;2022-08-19T01:17:33;52.95;;;30.72;;
34739;SDS011;20967;48.442;9.994;2022-08-19T01:20:02;51.65;;;30.23;;
34739;SDS011;20967;48.442;9.994;2022-08-19T01:22:30;50.50;;;30.50;;
34739;SDS011;20967;48.442;9.994;2022-08-19T01:24:59;57.43;;;33.18;;
34739;SDS011;20967;48.442;9.994;2022-08-19T01:27:35;53.23;;;30.80;;
34739;SDS011;20967;48.442;9.994;2022-08-19T01:29:56;55.25;;;32.17;;
34739;SDS011;20967;48.442;9.994;2022-08-19T01:32:24;50.85;;;30.70;;
34739;SDS011;20967;48.442;9.994;2022-08-19T01:34:51;54.30;;;31.27;;
34739;SDS011;20967;48.442;9.994;2022-08-19T01:37:19;52.17;;;30.85;;
34739;SDS011;20967;48.442;9.994;2022-08-19T01:39:46;50.83;;;28.98;;
34739;SDS011;20967;48.442;9.994;2022-08-19T01:42:14;50.20;;;29.52;;
34739;SDS011;20967;48.442;9.994;2022-08-19T01:44:42;52.03;;;30.57;;
34739;SDS011;20967;48.442;9.994;2022-08-19T01:47:09;46.05;;;27.27;;
34739;SDS011;20967;48.442;9.994;2022-08-19T01:49:37;50.30;;;29.23;;
34739;SDS011;20967;48.442;9.994;2022-08-19T01:52:05;50.43;;;29.92;;
34739;SDS011;20967;48.442;9.994;2022-08-19T01:54:32;57.33;;;29.85;;
34739;SDS011;20967;48.442;9.994;2022-08-19T01:57:01;51.40;;;29.10;;
34739;SDS011;20967;48.442;9.994;2022-08-19T01:59:29;52.20;;;29.72;;
34739;SDS011;20967;48.442;9.994;2022-08-19T02:01:57;49.42;;;29.00;;
34739;SDS011;20967;48.442;9.994;2022-08-19T02:04:24;46.02;;;27.20;;
34739;SDS011;20967;48.442;9.994;2022-08-19T02:06:53;50.12;;;29.45;;
34739;SDS011;20967;48.442;9.994;2022-08-19T02:09:21;51.88;;;28.73;;
34739;SDS011;20967;48.442;9.994;2022-08-19T02:11:48;44.98;;;28.65;;
34739;SDS011;20967;48.442;9.994;2022-08-19T02:14:16;56.37;;;30.32;;
34739;SDS011;20967;48.442;9.994;2022-08-19T02:16:43;52.50;;;30.17;;
34739;SDS011;20967;48.442;9.994;2022-08-19T02:19:11;54.55;;;30.05;;
34739;SDS011;20967;48.442;9.994;2022-08-19T02:21:38;56.08;;;30.90;;
34739;SDS011;20967;48.442;9.994;2022-08-19T02:24:06;54.08;;;31.55;;
34739;SDS011;20967;48.442;9.994;2022-08-19T02:26:33;58.85;;;31.75;;
34739;SDS011;20967;48.442;9.994;2022-08-19T02:29:01;57.58;;;32.00;;
34739;SDS011;20967;48.442;9.994;2022-08-19T02:31:28;48.83;;;29.18;;
34739;SDS011;20967;48.442;9.994;2022-08-19T02:33:56;56.70;;;30.52;;
34739;SDS011;20967;48.442;9.994;2022-08-19T02:36:24;56.00;;;30.43;;
34739;SDS011;20967;48.442;9.994;2022-08-19T02:38:52;55.95;;;30.62;;
34739;SDS011;20967;48.442;9.994;2022-08-19T02:41:25;56.85;;;30.32;;
34739;SDS011;20967;48.442;9.994;2022-08-19T02:43:56;50.30;;;29.52;;
34739;SDS011;20967;48.442;9.994;2022-08-19T02:46:26;50.85;;;27.15;;
34739;SDS011;20967;48.442;9.994;2022-08-19T02:48:59;49.40;;;28.07;;
34739;SDS011;20967;48.442;9.994;2022-08-19T02:51:24;54.10;;;30.10;;
34739;SDS011;20967;48.442;9.994;2022-08-19T02:53:52;52.05;;;29.23;;
34739;SDS011;20967;48.442;9.994;2022-08-19T02:56:20;55.10;;;30.37;;
34739;SDS011;20967;48.442;9.994;2022-08-19T02:58:48;52.08;;;30.40;;
34739;SDS011;20967;48.442;9.994;2022-08-19T03:01:25;54.25;;;29.07;;
34739;SDS011;20967;48.442;9.994;2022-08-19T03:06:20;57.58;;;30.32;;
34739;SDS011;20967;48.442;9.994;2022-08-19T03:08:48;54.58;;;30.08;;
34739;SDS011;20967;48.442;9.994;2022-08-19T03:11:21;55.55;;;30.48;;
34739;SDS011;20967;48.442;9.994;2022-08-19T03:13:48;55.98;;;29.87;;
34739;SDS011;20967;48.442;9.994;2022-08-19T03:16:20;55.78;;;30.55;;
34739;SDS011;20967;48.442;9.994;2022-08-19T03:18:48;54.98;;;29.72;;
34739;SDS011;20967;48.442;9.994;2022-08-19T03:21:20;55.03;;;29.90;;
34739;SDS011;20967;48.442;9.994;2022-08-19T03:23:47;61.77;;;30.92;;
34739;SDS011;20967;48.442;9.994;2022-08-19T03:26:15;52.75;;;29.40;;
34739;SDS011;20967;48.442;9.994;2022-08-19T03:28:43;54.50;;;30.75;;
34739;SDS011;20967;48.442;9.994;2022-08-19T03:31:13;54.20;;;29.80;;
34739;SDS011;20967;48.442;9.994;2022-08-19T03:33:41;61.83;;;29.40;;
34739;SDS011;20967;48.442;9.994;2022-08-19T03:36:10;56.53;;;28.52;;
34739;SDS011;20967;48.442;9.994;2022-08-19T03:38:44;54.85;;;30.77;;
34739;SDS011;20967;48.442;9.994;2022-08-19T03:41:08;56.92;;;30.68;;
34739;SDS011;20967;48.442;9.994;2022-08-19T03:43:37;55.45;;;31.27;;
34739;SDS011;20967;48.442;9.994;2022-08-19T03:46:06;58.08;;;30.55;;
34739;SDS011;20967;48.442;9.994;2022-08-19T03:48:34;60.52;;;30.92;;
34739;SDS011;20967;48.442;9.994;2022-08-19T03:51:02;55.78;;;29.50;;
34739;SDS011;20967;48.442;9.994;2022-08-19T03:53:30;58.25;;;32.20;;
34739;SDS011;20967;48.442;9.994;2022-08-19T03:55:58;58.30;;;31.82;;
34739;SDS011;20967;48.442;9.994;2022-08-19T03:58:27;64.42;;;30.45;;
34739;SDS011;20967;48.442;9.994;2022-08-19T04:00:55;60.78;;;31.30;;
34739;SDS011;20967;48.442;9.994;2022-08-19T04:03:24;61.42;;;31.10;;
34739;SDS011;20967;48.442;9.994;2022-08-19T04:05:53;60.58;;;32.63;;
34739;SDS011;20967;48.442;9.994;2022-08-19T04:08:20;56.77;;;31.42;;
34739;SDS011;20967;48.442;9.994;2022-08-19T04:10:48;65.03;;;32.38;;
34739;SDS011;20967;48.442;9.994;2022-08-19T04:13:17;66.40;;;33.45;;
34739;SDS011;20967;48.442;9.994;2022-08-19T04:15:45;63.58;;;32.75;;
34739;SDS011;20967;48.442;9.994;2022-08-19T04:18:13;60.28;;;33.30;;
34739;SDS011;20967;48.442;9.994;2022-08-19T04:20:46;64.07;;;32.33;;
34739;SDS011;20967;48.442;9.994;2022-08-19T04:23:10;61.08;;;32.05;;
34739;SDS011;20967;48.442;9.994;2022-08-19T04:25:42;63.25;;;31.68;;
34739;SDS011;20967;48.442;9.994;2022-08-19T04:28:11;62.10;;;32.05;;
34739;SDS011;20967;48.442;9.994;2022-08-19T04:30:44;66.55;;;33.20;;
34739;SDS011;20967;48.442;9.994;2022-08-19T04:33:08;62.58;;;31.97;;
34739;SDS011;20967;48.442;9.994;2022-08-19T04:35:43;59.58;;;31.48;;
34739;SDS011;20967;48.442;9.994;2022-08-19T04:38:05;64.37;;;33.18;;
34739;SDS011;20967;48.442;9.994;2022-08-19T04:40:33;62.67;;;31.80;;
34739;SDS011;20967;48.442;9.994;2022-08-19T04:43:19;63.33;;;33.10;;
34739;SDS011;20967;48.442;9.994;2022-08-19T04:45:47;66.22;;;34.63;;
34739;SDS011;20967;48.442;9.994;2022-08-19T04:48:14;62.55;;;32.05;;
34739;SDS011;20967;48.442;9.994;2022-08-19T04:50:42;59.27;;;32.33;;
34739;SDS011;20967;48.442;9.994;2022-08-19T04:53:10;61.95;;;30.60;;
34739;SDS011;20967;48.442;9.994;2022-08-19T04:55:39;62.90;;;32.20;;
34739;SDS011;20967;48.442;9.994;2022-08-19T04:58:06;61.75;;;33.53;;
34739;SDS011;20967;48.442;9.994;2022-08-19T05:00:34;56.18;;;31.60;;
34739;SDS011;20967;48.442;9.994;2022-08-19T05:03:03;65.15;;;32.85;;
34739;SDS011;20967;48.442;9.994;2022-08-19T05:05:30;64.80;;;32.88;;
34739;SDS011;20967;48.442;9.994;2022-08-19T05:07:59;63.58;;;31.80;;
34739;SDS011;20967;48.442;9.994;2022-08-19T05:10:26;65.50;;;33.60;;
34739;SDS011;20967;48.442;9.994;2022-08-19T05:12:54;62.33;;;32.63;;
34739;SDS011;20967;48.442;9.994;2022-08-19T05:15:21;62.95;;;31.80;;
34739;SDS011;20967;48.442;9.994;2022-08-19T05:17:49;74.20;;;34.08;;
34739;SDS011;20967;48.442;9.994;2022-08-19T05:20:37;62.90;;;32.45;;
34739;SDS011;20967;48.442;9.994;2022-08-19T05:23:21;60.07;;;32.50;;
34739;SDS011;20967;48.442;9.994;2022-08-19T05:25:49;61.73;;;33.30;;
34739;SDS011;20967;48.442;9.994;2022-08-19T05:28:18;60.28;;;33.38;;
34739;SDS011;20967;48.442;9.994;2022-08-19T05:30:46;62.67;;;31.62;;
34739;SDS011;20967;48.442;9.994;2022-08-19T05:33:14;53.98;;;30.35;;
34739;SDS011;20967;48.442;9.994;2022-08-19T05:35:42;56.65;;;29.98;;
34739;SDS011;20967;48.442;9.994;2022-08-19T05:38:10;58.52;;;31.20;;
34739;SDS011;20967;48.442;9.994;2022-08-19T05:40:38;63.58;;;31.85;;
34739;SDS011;20967;48.442;9.994;2022-08-19T05:43:06;58.05;;;31.50;;
34739;SDS011;20967;48.442;9.994;2022-08-19T05:45:38;65.67;;;31.75;;
34739;SDS011;20967;48.442;9.994;2022-08-19T05:48:06;59.38;;;30.85;;
34739;SDS011;20967;48.442;9.994;2022-08-19T05:50:35;62.62;;;30.55;;
34739;SDS011;20967;48.442;9.994;2022-08-19T05:53:03;59.20;;;31.77;;
34739;SDS011;20967;48.442;9.994;2022-08-19T05:55:31;58.08;;;30.80;;
34739;SDS011;20967;48.442;9.994;2022-08-19T05:57:58;59.30;;;30.02;;
34739;SDS011;20967;48.442;9.994;2022-08-19T06:00:28;60.78;;;29.80;;
34739;SDS011;20967;48.442;9.994;2022-08-19T06:02:57;55.20;;;30.70;;
34739;SDS011;20967;48.442;9.994;2022-08-19T06:05:26;62.58;;;31.73;;
34739;SDS011;20967;48.442;9.994;2022-08-19T06:07:53;61.98;;;31.62;;
34739;SDS011;20967;48.442;9.994;2022-08-19T06:10:21;55.50;;;31.05;;
34739;SDS011;20967;48.442;9.994;2022-08-19T06:12:48;65.15;;;32.15;;
34739;SDS011;20967;48.442;9.994;2022-08-19T06:15:16;65.62;;;33.10;;
34739;SDS011;20967;48.442;9.994;2022-08-19T06:17:43;65.50;;;32.95;;
34739;SDS011;20967;48.442;9.994;2022-08-19T06:20:12;64.03;;;30.37;;
34739;SDS011;20967;48.442;9.994;2022-08-19T06:22:41;64.45;;;32.33;;
34739;SDS011;20967;48.442;9.994;2022-08-19T06:25:08;64.85;;;32.08;;
34739;SDS011;20967;48.442;9.994;2022-08-19T06:27:36;65.08;;;31.73;;
34739;SDS011;20967;48.442;9.994;2022-08-19T06:30:04;64.27;;;31.20;;
34739;SDS011;20967;48.442;9.994;2022-08-19T06:32:32;65.97;;;33.60;;
34739;SDS011;20967;48.442;9.994;2022-08-19T06:34:59;70.03;;;32.40;;
34739;SDS011;20967;48.442;9.994;2022-08-19T06:37:27;65.42;;;32.88;;
34739;SDS011;20967;48.442;9.994;2022-08-19T06:39:54;73.05;;;34.43;;
34739;SDS011;20967;48.442;9.994;2022-08-19T06:42:22;69.97;;;35.17;;
34739;SDS011;20967;48.442;9.994;2022-08-19T06:44:49;74.32;;;34.70;;
34739;SDS011;20967;48.442;9.994;2022-08-19T06:47:18;70.15;;;34.38;;
34739;SDS011;20967;48.442;9.994;2022-08-19T06:49:46;65.52;;;32.03;;
34739;SDS011;20967;48.442;9.994;2022-08-19T06:52:13;66.15;;;33.25;;
34739;SDS011;20967;48.442;9.994;2022-08-19T06:54:41;64.90;;;34.38;;
34739;SDS011;20967;48.442;9.994;2022-08-19T06:57:09;63.45;;;32.25;;
34739;SDS011;20967;48.442;9.994;2022-08-19T06:59:38;65.42;;;33.30;;
34739;SDS011;20967;48.442;9.994;2022-08-19T07:02:07;67.62;;;33.90;;
34739;SDS011;20967;48.442;9.994;2022-08-19T07:04:35;67.40;;;32.70;;
34739;SDS011;20967;48.442;9.994;2022-08-19T07:07:06;68.17;;;32.45;;
34739;SDS011;20967;48.442;9.994;2022-08-19T07:09:35;62.62;;;31.85;;
34739;SDS011;20967;48.442;9.994;2022-08-19T07:12:05;66.67;;;30.68;;
34739;SDS011;20967;48.442;9.994;2022-08-19T07:14:33;66.55;;;31.80;;
34739;SDS011;20967;48.442;9.994;2022-08-19T07:17:05;66.95;;;32.60;;
34739;SDS011;20967;48.442;9.994;2022-08-19T07:19:33;73.52;;;32.78;;
34739;SDS011;20967;48.442;9.994;2022-08-19T07:22:01;68.45;;;31.75;;
34739;SDS011;20967;48.442;9.994;2022-08-19T07:24:29;62.40;;;30.43;;
34739;SDS011;20967;48.442;9.994;2022-08-19T07:26:59;68.40;;;32.55;;
34739;SDS011;20967;48.442;9.994;2022-08-19T07:29:29;75.87;;;34.98;;
34739;SDS011;20967;48.442;9.994;2022-08-19T07:31:59;76.90;;;32.40;;
34739;SDS011;20967;48.442;9.994;2022-08-19T07:34:28;77.95;;;33.33;;
34739;SDS011;20967;48.442;9.994;2022-08-19T07:36:56;80.17;;;33.48;;
34739;SDS011;20967;48.442;9.994;2022-08-19T07:39:29;82.27;;;34.83;;
34739;SDS011;20967;48.442;9.994;2022-08-19T07:41:53;84.00;;;36.80;;
34739;SDS011;20967;48.442;9.994;2022-08-19T07:44:21;82.55;;;34.30;;
34739;SDS011;20967;48.442;9.994;2022-08-19T07:46:50;91.17;;;36.33;;
34739;SDS011;20967;48.442;9.994;2022-08-19T07:49:18;85.22;;;33.35;;
34739;SDS011;20967;48.442;9.994;2022-08-19T07:51:47;91.80;;;39.35;;
34739;SDS011;20967;48.442;9.994;2022-08-19T07:54:15;98.45;;;40.03;;
34739;SDS011;20967;48.442;9.994;2022-08-19T07:56:43;91.00;;;39.10;;
34739;SDS011;20967;48.442;9.994;2022-08-19T07:59:12;86.08;;;38.10;;
34739;SDS011;20967;48.442;9.994;2022-08-19T08:01:45;104.30;;;40.70;;
34739;SDS011;20967;48.442;9.994;2022-08-19T08:04:09;91.97;;;40.43;;
34739;SDS011;20967;48.442;9.994;2022-08-19T08:06:55;97.53;;;39.20;;
34739;SDS011;20967;48.442;9.994;2022-08-19T08:09:41;95.45;;;39.45;;
34739;SDS011;20967;48.442;9.994;2022-08-19T08:12:23;97.75;;;42.58;;
34739;SDS011;20967;48.442;9.994;2022-08-19T08:14:53;104.80;;;43.50;;
34739;SDS011;20967;48.442;9.994;2022-08-19T08:17:21;104.50;;;41.40;;
34739;SDS011;20967;48.442;9.994;2022-08-19T08:19:50;111.28;;;45.33;;
34739;SDS011;20967;48.442;9.994;2022-08-19T08:22:19;107.55;;;43.25;;
34739;SDS011;20967;48.442;9.994;2022-08-19T08:25:09;102.97;;;44.00;;
34739;SDS011;20967;48.442;9.994;2022-08-19T08:27:39;111.83;;;43.92;;
34739;SDS011;20967;48.442;9.994;2022-08-19T08:30:11;98.22;;;43.20;;
34739;SDS011;20967;48.442;9.994;2022-08-19T08:32:37;102.05;;;42.85;;
34739;SDS011;20967;48.442;9.994;2022-08-19T08:35:05;91.02;;;38.90;;
34739;SDS011;20967;48.442;9.994;2022-08-19T08:37:33;96.45;;;39.98;;
34739;SDS011;20967;48.442;9.994;2022-08-19T08:40:12;86.50;;;39.73;;
34739;SDS011;20967;48.442;9.994;2022-08-19T08:42:34;87.95;;;39.35;;
34739;SDS011;20967;48.442;9.994;2022-08-19T08:45:05;99.10;;;41.25;;
34739;SDS011;20967;48.442;9.994;2022-08-19T08:47:34;98.90;;;40.45;;
34739;SDS011;20967;48.442;9.994;2022-08-19T08:50:04;101.67;;;41.80;;
34739;SDS011;20967;48.442;9.994;2022-08-19T08:52:31;89.37;;;39.75;;
34739;SDS011;20967;48.442;9.994;2022-08-19T08:55:10;93.10;;;42.15;;
34739;SDS011;20967;48.442;9.994;2022-08-19T09:00:05;92.90;;;40.73;;
34739;SDS011;20967;48.442;9.994;2022-08-19T09:02:33;86.10;;;36.58;;
34739;SDS011;20967;48.442;9.994;2022-08-19T09:05:01;87.80;;;38.15;;
34739;SDS011;20967;48.442;9.994;2022-08-19T09:17:45;88.70;;;40.10;;
34739;SDS011;20967;48.442;9.994;2022-08-19T09:20:15;82.37;;;38.28;;
34739;SDS011;20967;48.442;9.994;2022-08-19T09:22:42;79.03;;;37.15;;
34739;SDS011;20967;48.442;9.994;2022-08-19T09:25:12;80.03;;;36.77;;
34739;SDS011;20967;48.442;9.994;2022-08-19T09:27:40;82.30;;;36.65;;
34739;SDS011;20967;48.442;9.994;2022-08-19T09:30:09;84.72;;;38.80;;
34739;SDS011;20967;48.442;9.994;2022-08-19T09:32:37;81.53;;;38.28;;
34739;SDS011;20967;48.442;9.994;2022-08-19T09:35:05;73.72;;;37.00;;
34739;SDS011;20967;48.442;9.994;2022-08-19T09:37:33;65.37;;;33.50;;
34739;SDS011;20967;48.442;9.994;2022-08-19T09:40:01;67.08;;;34.63;;
34739;SDS011;20967;48.442;9.994;2022-08-19T09:42:28;70.40;;;35.68;;
34739;SDS011;20967;48.442;9.994;2022-08-19T09:44:56;71.67;;;34.63;;
34739;SDS011;20967;48.442;9.994;2022-08-19T09:47:23;69.90;;;35.45;;
34739;SDS011;20967;48.442;9.994;2022-08-19T09:49:51;78.17;;;38.63;;
34739;SDS011;20967;48.442;9.994;2022-08-19T09:52:18;70.60;;;35.73;;
34739;SDS011;20967;48.442;9.994;2022-08-19T09:54:47;71.97;;;37.17;;
34739;SDS011;20967;48.442;9.994;2022-08-19T09:57:14;65.10;;;33.80;;
34739;SDS011;20967;48.442;9.994;2022-08-19T09:59:43;70.72;;;36.40;;
34739;SDS011;20967;48.442;9.994;2022-08-19T10:02:11;69.25;;;35.30;;
34739;SDS011;20967;48.442;9.994;2022-08-19T10:04:39;68.20;;;35.52;;
34739;SDS011;20967;48.442;9.994;2022-08-19T10:07:24;74.10;;;36.60;;
34739;SDS011;20967;48.442;9.994;2022-08-19T10:09:52;70.12;;;35.63;;
34739;SDS011;20967;48.442;9.994;2022-08-19T10:12:20;65.78;;;35.10;;
34739;SDS011;20967;48.442;9.994;2022-08-19T10:14:48;66.97;;;34.70;;
34739;SDS011;20967;48.442;9.994;2022-08-19T10:17:17;59.23;;;30.35;;
34739;SDS011;20967;48.442;9.994;2022-08-19T10:19:45;66.37;;;35.10;;
34739;SDS011;20967;48.442;9.994;2022-08-19T10:22:12;65.90;;;33.33;;
34739;SDS011;20967;48.442;9.994;2022-08-19T10:24:40;63.48;;;33.28;;
34739;SDS011;20967;48.442;9.994;2022-08-19T10:27:08;63.00;;;33.80;;
34739;SDS011;20967;48.442;9.994;2022-08-19T10:29:36;59.27;;;31.10;;
34739;SDS011;20967;48.442;9.994;2022-08-19T10:32:04;55.43;;;30.32;;
34739;SDS011;20967;48.442;9.994;2022-08-19T10:34:34;54.40;;;29.98;;
34739;SDS011;20967;48.442;9.994;2022-08-19T10:37:02;59.48;;;32.30;;
34739;SDS011;20967;48.442;9.994;2022-08-19T10:39:32;63.75;;;32.83;;
34739;SDS011;20967;48.442;9.994;2022-08-19T10:42:04;60.50;;;31.68;;
34739;SDS011;20967;48.442;9.994;2022-08-19T10:44:29;65.20;;;34.13;;
34739;SDS011;20967;48.442;9.994;2022-08-19T10:46:57;67.60;;;33.13;;
34739;SDS011;20967;48.442;9.994;2022-08-19T10:49:25;65.75;;;33.33;;
34739;SDS011;20967;48.442;9.994;2022-08-19T10:51:53;62.00;;;33.05;;
34739;SDS011;20967;48.442;9.994;2022-08-19T10:54:38;75.40;;;35.35;;
34739;SDS011;20967;48.442;9.994;2022-08-19T10:57:24;66.60;;;33.40;;
34739;SDS011;20967;48.442;9.994;2022-08-19T10:59:53;71.07;;;34.13;;
34739;SDS011;20967;48.442;9.994;2022-08-19T11:02:20;71.82;;;35.13;;
34739;SDS011;20967;48.442;9.994;2022-08-19T11:04:48;67.20;;;34.20;;
34739;SDS011;20967;48.442;9.994;2022-08-19T11:07:17;75.00;;;35.15;;
34739;SDS011;20967;48.442;9.994;2022-08-19T11:09:45;69.00;;;35.85;;
34739;SDS011;20967;48.442;9.994;2022-08-19T11:12:12;73.70;;;35.60;;
34739;SDS011;20967;48.442;9.994;2022-08-19T11:14:41;87.35;;;38.45;;
34739;SDS011;20967;48.442;9.994;2022-08-19T11:17:09;84.83;;;39.60;;
34739;SDS011;20967;48.442;9.994;2022-08-19T11:19:38;89.77;;;39.48;;
34739;SDS011;20967;48.442;9.994;2022-08-19T11:22:07;87.00;;;40.78;;
34739;SDS011;20967;48.442;9.994;2022-08-19T11:24:35;94.10;;;41.60;;
34739;SDS011;20967;48.442;9.994;2022-08-19T11:27:04;102.15;;;45.15;;
34739;SDS011;20967;48.442;9.994;2022-08-19T11:29:32;93.33;;;41.35;;
34739;SDS011;20967;48.442;9.994;2022-08-19T11:32:04;94.32;;;43.58;;
34739;SDS011;20967;48.442;9.994;2022-08-19T11:34:30;104.15;;;43.60;;
34739;SDS011;20967;48.442;9.994;2022-08-19T11:36:57;101.40;;;43.40;;
34739;SDS011;20967;48.442;9.994;2022-08-19T11:39:26;102.85;;;43.10;;
34739;SDS011;20967;48.442;9.994;2022-08-19T11:41:54;92.20;;;43.48;;
34739;SDS011;20967;48.442;9.994;2022-08-19T11:44:22;86.57;;;40.88;;
34739;SDS011;20967;48.442;9.994;2022-08-19T11:46:52;89.03;;;40.73;;
34739;SDS011;20967;48.442;9.994;2022-08-19T11:49:19;85.10;;;38.65;;
34739;SDS011;20967;48.442;9.994;2022-08-19T11:51:47;75.08;;;36.63;;
34739;SDS011;20967;48.442;9.994;2022-08-19T11:54:17;70.37;;;34.25;;
34739;SDS011;20967;48.442;9.994;2022-08-19T11:56:44;76.62;;;36.60;;
34739;SDS011;20967;48.442;9.994;2022-08-19T11:59:12;66.45;;;34.60;;
34739;SDS011;20967;48.442;9.994;2022-08-19T12:01:40;61.63;;;32.33;;
34739;SDS011;20967;48.442;9.994;2022-08-19T12:04:09;63.48;;;31.57;;
34739;SDS011;20967;48.442;9.994;2022-08-19T12:06:37;61.08;;;31.25;;
34739;SDS011;20967;48.442;9.994;2022-08-19T12:09:06;58.40;;;29.65;;
34739;SDS011;20967;48.442;9.994;2022-08-19T12:11:35;56.83;;;29.98;;
34739;SDS011;20967;48.442;9.994;2022-08-19T12:14:03;49.73;;;26.62;;
34739;SDS011;20967;48.442;9.994;2022-08-19T12:16:31;52.90;;;27.93;;
34739;SDS011;20967;48.442;9.994;2022-08-19T12:18:59;49.77;;;26.62;;
34739;SDS011;20967;48.442;9.994;2022-08-19T12:21:29;50.05;;;27.95;;
34739;SDS011;20967;48.442;9.994;2022-08-19T12:23:57;45.08;;;26.30;;
34739;SDS011;20967;48.442;9.994;2022-08-19T12:26:25;47.20;;;26.45;;
34739;SDS011;20967;48.442;9.994;2022-08-19T12:28:53;44.58;;;24.82;;
34739;SDS011;20967;48.442;9.994;2022-08-19T12:31:21;52.03;;;25.20;;
34739;SDS011;20967;48.442;9.994;2022-08-19T12:33:48;46.05;;;26.05;;
34739;SDS011;20967;48.442;9.994;2022-08-19T12:36:17;49.77;;;25.92;;
34739;SDS011;20967;48.442;9.994;2022-08-19T12:38:45;46.10;;;24.87;;
34739;SDS011;20967;48.442;9.994;2022-08-19T12:41:14;42.78;;;24.10;;
34739;SDS011;20967;48.442;9.994;2022-08-19T12:43:41;40.50;;;23.22;;
34739;SDS011;20967;48.442;9.994;2022-08-19T12:46:09;43.10;;;24.72;;
34739;SDS011;20967;48.442;9.994;2022-08-19T12:48:37;42.35;;;24.32;;
34739;SDS011;20967;48.442;9.994;2022-08-19T12:51:08;40.08;;;23.75;;
34739;SDS011;20967;48.442;9.994;2022-08-19T12:53:36;37.40;;;22.32;;
34739;SDS011;20967;48.442;9.994;2022-08-19T12:56:04;30.40;;;18.67;;
34739;SDS011;20967;48.442;9.994;2022-08-19T12:58:31;36.93;;;19.25;;
34739;SDS011;20967;48.442;9.994;2022-08-19T13:01:14;32.42;;;20.35;;
34739;SDS011;20967;48.442;9.994;2022-08-19T13:06:03;37.80;;;20.20;;
34739;SDS011;20967;48.442;9.994;2022-08-19T13:08:31;34.53;;;20.17;;
34739;SDS011;20967;48.442;9.994;2022-08-19T13:11:06;34.92;;;20.02;;
34739;SDS011;20967;48.442;9.994;2022-08-19T13:13:28;35.58;;;21.05;;
34739;SDS011;20967;48.442;9.994;2022-08-19T13:16:00;31.00;;;19.42;;
34739;SDS011;20967;48.442;9.994;2022-08-19T13:18:29;33.10;;;19.45;;
34739;SDS011;20967;48.442;9.994;2022-08-19T13:21:01;28.67;;;17.87;;
34739;SDS011;20967;48.442;9.994;2022-08-19T13:23:27;27.13;;;17.48;;
34739;SDS011;20967;48.442;9.994;2022-08-19T13:25:58;21.93;;;12.55;;
34739;SDS011;20967;48.442;9.994;2022-08-19T13:28:25;20.08;;;11.83;;
34739;SDS011;20967;48.442;9.994;2022-08-19T13:30:55;18.73;;;12.78;;
34739;SDS011;20967;48.442;9.994;2022-08-19T13:33:40;23.50;;;14.10;;
34739;SDS011;20967;48.442;9.994;2022-08-19T13:36:08;20.08;;;13.55;;
34739;SDS011;20967;48.442;9.994;2022-08-19T13:38:35;22.00;;;13.95;;
34739;SDS011;20967;48.442;9.994;2022-08-19T13:41:05;25.05;;;13.98;;
34739;SDS011;20967;48.442;9.994;2022-08-19T13:43:32;19.62;;;12.10;;
34739;SDS011;20967;48.442;9.994;2022-08-19T13:46:07;16.95;;;11.68;;
34739;SDS011;20967;48.442;9.994;2022-08-19T13:48:29;16.27;;;10.45;;
34739;SDS011;20967;48.442;9.994;2022-08-19T13:50:57;13.05;;;9.03;;
34739;SDS011;20967;48.442;9.994;2022-08-19T13:53:24;15.25;;;9.78;;
34739;SDS011;20967;48.442;9.994;2022-08-19T13:55:52;16.48;;;9.75;;
34739;SDS011;20967;48.442;9.994;2022-08-19T13:58:20;15.20;;;9.48;;
34739;SDS011;20967;48.442;9.994;2022-08-19T14:00:48;16.97;;;10.72;;
34739;SDS011;20967;48.442;9.994;2022-08-19T14:03:16;20.17;;;12.50;;
34739;SDS011;20967;48.442;9.994;2022-08-19T14:05:44;22.82;;;13.50;;
34739;SDS011;20967;48.442;9.994;2022-08-19T14:08:13;26.12;;;12.35;;
34739;SDS011;20967;48.442;9.994;2022-08-19T14:10:40;23.10;;;12.65;;
34739;SDS011;20967;48.442;9.994;2022-08-19T14:13:09;22.27;;;12.82;;
34739;SDS011;20967;48.442;9.994;2022-08-19T14:15:37;24.87;;;13.75;;
34739;SDS011;20967;48.442;9.994;2022-08-19T14:18:05;23.77;;;13.85;;
34739;SDS011;20967;48.442;9.994;2022-08-19T14:20:35;22.70;;;14.13;;
34739;SDS011;20967;48.442;9.994;2022-08-19T14:23:03;23.87;;;14.87;;
34739;SDS011;20967;48.442;9.994;2022-08-19T14:25:32;28.17;;;17.02;;
34739;SDS011;20967;48.442;9.994;2022-08-19T14:28:00;33.42;;;18.25;;
34739;SDS011;20967;48.442;9.994;2022-08-19T14:30:29;31.77;;;18.50;;
34739;SDS011;20967;48.442;9.994;2022-08-19T14:32:58;30.88;;;16.48;;
34739;SDS011;20967;48.442;9.994;2022-08-19T14:35:32;31.97;;;17.52;;
34739;SDS011;20967;48.442;9.994;2022-08-19T14:37:58;34.50;;;17.73;;
34739;SDS011;20967;48.442;9.994;2022-08-19T14:40:26;36.75;;;20.60;;
34739;SDS011;20967;48.442;9.994;2022-08-19T14:43:00;31.85;;;17.87;;
34739;SDS011;20967;48.442;9.994;2022-08-19T14:45:26;28.00;;;16.73;;
34739;SDS011;20967;48.442;9.994;2022-08-19T14:47:54;31.55;;;17.52;;